createdAt,value
2023-05-05T00:02:04.512Z,10.20
2023-05-05T00:04:31.417Z,10.20
2023-05-05T00:06:58.326Z,10.10
2023-05-05T00:09:25.411Z,10.10
2023-05-05T00:11:53.196Z,10.10
2023-05-05T00:14:20.019Z,10.10
2023-05-05T00:16:47.354Z,10.00
2023-05-05T00:19:16.593Z,10.00
2023-05-05T00:21:44.313Z,10.00
2023-05-05T00:24:11.545Z,9.90
2023-05-05T00:26:38.418Z,9.90
2023-05-05T00:29:05.910Z,9.80
2023-05-05T00:31:32.990Z,9.80
2023-05-05T00:34:00.213Z,9.80
2023-05-05T00:36:27.431Z,9.70
2023-05-05T00:38:54.253Z,9.60
2023-05-05T00:41:21.421Z,9.60
2023-05-05T00:43:48.775Z,9.60
2023-05-05T00:46:26.435Z,9.60
2023-05-05T00:48:53.765Z,9.60
2023-05-05T00:51:20.960Z,9.60
2023-05-05T00:53:50.416Z,9.60
2023-05-05T00:56:18.475Z,9.60
2023-05-05T00:58:46.279Z,9.60
2023-05-05T01:01:13.670Z,9.50
2023-05-05T01:03:44.593Z,9.50
2023-05-05T01:06:38.844Z,9.50
2023-05-05T01:09:27.111Z,9.40
2023-05-05T01:12:09.817Z,9.20
2023-05-05T01:14:43.616Z,9.20
2023-05-05T01:17:20.760Z,9.10
2023-05-05T01:20:15.654Z,9.20
2023-05-05T01:22:46.748Z,9.10
2023-05-05T01:25:33.505Z,9.10
2023-05-05T01:28:23.899Z,9.10
2023-05-05T01:30:57.408Z,9.00
2023-05-05T01:33:27.455Z,9.00
2023-05-05T01:35:56.481Z,9.00
2023-05-05T01:38:31.488Z,9.00
2023-05-05T01:41:19.498Z,9.00
2023-05-05T01:43:47.213Z,9.00
2023-05-05T01:46:14.268Z,9.00
2023-05-05T01:48:42.692Z,9.10
2023-05-05T01:51:09.557Z,8.90
2023-05-05T01:53:36.337Z,8.80
2023-05-05T01:56:04.132Z,8.70
2023-05-05T01:58:31.132Z,8.70
2023-05-05T02:00:58.579Z,8.60
2023-05-05T02:03:26.889Z,8.50
2023-05-05T02:05:53.787Z,8.50
2023-05-05T02:08:21.236Z,8.50
2023-05-05T02:10:48.119Z,8.50
2023-05-05T02:13:16.162Z,8.40
2023-05-05T02:15:44.003Z,8.40
2023-05-05T02:18:10.928Z,8.40
2023-05-05T02:20:38.664Z,8.40
2023-05-05T02:23:10.244Z,8.30
2023-05-05T02:25:46.162Z,8.30
2023-05-05T02:28:19.482Z,8.30
2023-05-05T02:30:51.721Z,8.20
2023-05-05T02:33:18.601Z,8.30
2023-05-05T02:35:46.004Z,8.30
2023-05-05T02:38:19.533Z,8.20
2023-05-05T02:40:47.064Z,8.20
2023-05-05T02:43:16.814Z,8.20
2023-05-05T02:45:44.537Z,8.20
2023-05-05T02:48:15.872Z,8.30
2023-05-05T02:50:42.671Z,8.30
2023-05-05T02:53:10.162Z,8.20
2023-05-05T02:55:44.565Z,8.20
2023-05-05T02:58:34.358Z,8.20
2023-05-05T03:01:04.240Z,8.10
2023-05-05T03:03:40.241Z,8.20
2023-05-05T03:06:20.244Z,8.20
2023-05-05T03:09:08.626Z,8.10
2023-05-05T03:12:05.774Z,8.10
2023-05-05T03:14:36.637Z,8.10
2023-05-05T03:17:03.585Z,8.10
2023-05-05T03:19:30.761Z,8.00
2023-05-05T03:21:57.640Z,8.10
2023-05-05T03:24:24.484Z,8.10
2023-05-05T03:26:51.455Z,8.10
2023-05-05T03:29:19.074Z,8.10
2023-05-05T03:31:46.040Z,8.00
2023-05-05T03:34:13.367Z,8.10
2023-05-05T03:36:40.643Z,8.00
2023-05-05T03:39:08.018Z,8.00
2023-05-05T03:41:34.872Z,7.90
2023-05-05T03:44:02.615Z,7.90
2023-05-05T03:46:29.419Z,7.80
2023-05-05T03:48:57.314Z,7.80
2023-05-05T03:51:25.355Z,7.70
2023-05-05T03:53:52.274Z,7.70
2023-05-05T03:56:19.139Z,7.70
2023-05-05T03:58:46.123Z,7.70
2023-05-05T04:01:12.929Z,7.60
2023-05-05T04:03:40.820Z,7.60
2023-05-05T04:06:07.804Z,7.60
2023-05-05T04:08:34.666Z,7.60
2023-05-05T04:11:02.679Z,7.70
2023-05-05T04:13:29.622Z,7.60
2023-05-05T04:15:56.980Z,7.70
2023-05-05T04:18:23.858Z,7.70
2023-05-05T04:20:50.818Z,7.70
2023-05-05T04:23:18.278Z,7.70
2023-05-05T04:25:45.182Z,7.80
2023-05-05T04:28:12.144Z,7.80
2023-05-05T04:30:39.066Z,7.80
2023-05-05T04:33:06.298Z,7.90
2023-05-05T04:35:33.873Z,8.00
2023-05-05T04:38:01.169Z,8.20
2023-05-05T04:40:29.117Z,8.30
2023-05-05T04:42:55.978Z,8.50
2023-05-05T04:45:22.975Z,8.70
2023-05-05T04:47:50.840Z,8.90
2023-05-05T04:50:17.866Z,9.10
2023-05-05T04:52:47.848Z,9.40
2023-05-05T04:55:15.495Z,9.80
2023-05-05T04:57:42.352Z,9.90
2023-05-05T05:00:09.914Z,10.10
2023-05-05T05:02:38.394Z,10.30
2023-05-05T05:05:05.727Z,10.70
2023-05-05T05:07:32.503Z,11.10
2023-05-05T05:10:00.660Z,11.40
2023-05-05T05:12:27.580Z,11.70
2023-05-05T05:14:54.465Z,12.00
2023-05-05T05:17:22.594Z,12.40
2023-05-05T05:19:49.759Z,12.70
2023-05-05T05:22:18.302Z,13.10
2023-05-05T05:24:45.319Z,13.40
2023-05-05T05:27:13.204Z,13.60
2023-05-05T05:29:39.989Z,13.60
2023-05-05T05:32:07.024Z,13.60
2023-05-05T05:34:33.881Z,13.60
2023-05-05T05:37:01.303Z,13.70
2023-05-05T05:39:29.146Z,13.80
2023-05-05T05:41:55.978Z,14.10
2023-05-05T05:44:22.873Z,14.30
2023-05-05T05:46:49.745Z,14.50
2023-05-05T05:49:20.054Z,14.50
2023-05-05T05:51:46.877Z,14.50
2023-05-05T05:54:13.649Z,14.50
2023-05-05T05:56:40.745Z,14.50
2023-05-05T05:59:13.511Z,14.60
2023-05-05T06:01:40.538Z,14.70
2023-05-05T06:04:07.851Z,14.80
2023-05-05T06:06:35.701Z,14.90
2023-05-05T06:09:02.526Z,15.00
2023-05-05T06:11:29.419Z,15.20
2023-05-05T06:13:56.265Z,15.30
2023-05-05T06:16:23.461Z,15.50
2023-05-05T06:18:50.218Z,15.40
2023-05-05T06:21:17.760Z,15.50
2023-05-05T06:23:44.666Z,15.70
2023-05-05T06:26:11.529Z,15.80
2023-05-05T06:28:40.051Z,15.80
2023-05-05T06:31:07.006Z,15.90
2023-05-05T06:33:33.821Z,16.10
2023-05-05T06:36:02.368Z,16.20
2023-05-05T06:38:29.551Z,16.20
2023-05-05T06:40:59.253Z,16.30
2023-05-05T06:43:26.198Z,16.40
2023-05-05T06:45:53.422Z,16.50
2023-05-05T06:48:20.259Z,16.70
2023-05-05T06:50:47.146Z,16.70
2023-05-05T06:53:14.039Z,16.80
2023-05-05T06:55:44.219Z,16.90
2023-05-05T06:58:12.269Z,17.00
2023-05-05T07:00:40.229Z,17.10
2023-05-05T07:03:07.123Z,17.20
2023-05-05T07:05:34.209Z,17.30
2023-05-05T07:08:01.070Z,17.40
2023-05-05T07:10:28.181Z,17.40
2023-05-05T07:12:55.163Z,17.50
2023-05-05T07:15:28.845Z,17.60
2023-05-05T07:17:57.040Z,17.80
2023-05-05T07:20:25.229Z,17.90
2023-05-05T07:22:52.131Z,18.00
2023-05-05T07:25:21.643Z,18.00
2023-05-05T07:27:48.522Z,18.00
2023-05-05T07:30:18.511Z,18.10
2023-05-05T07:32:46.341Z,18.20
2023-05-05T07:35:13.543Z,18.30
2023-05-05T07:37:40.378Z,18.40
2023-05-05T07:40:08.153Z,18.60
2023-05-05T07:42:35.155Z,18.70
2023-05-05T07:45:02.373Z,18.70
2023-05-05T07:47:29.301Z,18.70
2023-05-05T07:49:56.341Z,18.80
2023-05-05T07:52:43.307Z,18.90
2023-05-05T07:55:12.439Z,19.00
2023-05-05T07:57:39.410Z,19.00
2023-05-05T08:00:08.440Z,19.00
2023-05-05T08:02:35.549Z,19.10
2023-05-05T08:05:02.456Z,19.20
2023-05-05T08:07:29.267Z,19.40
2023-05-05T08:09:57.187Z,19.50
2023-05-05T08:12:24.005Z,19.70
2023-05-05T08:14:50.918Z,19.80
2023-05-05T08:17:21.064Z,19.80
2023-05-05T08:19:47.892Z,19.80
2023-05-05T08:22:15.026Z,19.90
2023-05-05T08:24:43.445Z,20.00
2023-05-05T08:27:10.443Z,20.10
2023-05-05T08:29:37.925Z,20.30
2023-05-05T08:32:04.898Z,20.40
2023-05-05T08:34:32.011Z,20.40
2023-05-05T08:36:58.809Z,20.40
2023-05-05T08:39:26.235Z,20.60
2023-05-05T08:41:53.059Z,20.80
2023-05-05T08:44:20.646Z,20.90
2023-05-05T08:46:47.572Z,21.00
2023-05-05T08:49:17.899Z,21.00
2023-05-05T08:51:48.845Z,21.00
2023-05-05T08:54:18.133Z,21.20
2023-05-05T08:56:45.163Z,21.30
2023-05-05T08:59:12.181Z,21.40
2023-05-05T09:01:39.480Z,21.60
2023-05-05T09:04:07.806Z,21.70
2023-05-05T09:06:35.671Z,21.80
2023-05-05T09:09:03.617Z,22.00
2023-05-05T09:11:30.582Z,22.10
2023-05-05T09:13:57.460Z,22.20
2023-05-05T09:16:24.488Z,22.20
2023-05-05T09:18:51.366Z,22.30
2023-05-05T09:21:25.493Z,22.40
2023-05-05T09:24:09.416Z,22.50
2023-05-05T09:26:43.449Z,22.50
2023-05-05T09:29:17.254Z,22.50
2023-05-05T09:31:44.092Z,22.80
2023-05-05T09:34:17.908Z,22.90
2023-05-05T09:36:49.260Z,23.00
2023-05-05T09:39:20.003Z,23.20
2023-05-05T09:41:47.152Z,23.40
2023-05-05T09:44:17.114Z,23.60
2023-05-05T09:46:55.298Z,23.70
2023-05-05T09:49:27.118Z,23.80
2023-05-05T09:51:54.363Z,23.80
2023-05-05T09:54:29.360Z,23.90
2023-05-05T09:57:00.246Z,23.80
2023-05-05T09:59:27.101Z,23.70
2023-05-05T10:01:53.945Z,23.70
2023-05-05T10:04:29.255Z,23.90
2023-05-05T10:06:56.842Z,24.00
2023-05-05T10:09:25.168Z,24.20
2023-05-05T10:11:52.293Z,24.20
2023-05-05T10:14:20.058Z,24.30
2023-05-05T10:16:51.104Z,24.30
2023-05-05T10:19:27.261Z,24.40
2023-05-05T10:21:57.010Z,24.60
2023-05-05T10:25:01.385Z,24.60
2023-05-05T10:27:29.522Z,24.50
2023-05-05T10:30:12.134Z,24.50
2023-05-05T10:32:59.364Z,24.60
2023-05-05T10:35:36.416Z,24.70
2023-05-05T10:38:03.267Z,24.60
2023-05-05T10:40:31.433Z,24.60
2023-05-05T10:42:58.266Z,24.70
2023-05-05T10:45:26.857Z,24.80
2023-05-05T10:47:53.816Z,24.80
2023-05-05T10:50:31.955Z,24.80
2023-05-05T10:53:29.218Z,24.70
2023-05-05T10:56:16.402Z,24.70
2023-05-05T10:58:55.590Z,24.70
2023-05-05T11:01:34.650Z,24.80
2023-05-05T11:04:21.706Z,24.80
2023-05-05T11:07:14.362Z,24.90
2023-05-05T11:10:07.185Z,25.00
2023-05-05T11:13:02.796Z,25.10
2023-05-05T11:15:30.654Z,25.20
2023-05-05T11:17:58.362Z,25.10
2023-05-05T11:20:39.603Z,25.20
2023-05-05T11:23:06.674Z,25.20
2023-05-05T11:25:41.555Z,25.30
2023-05-05T11:28:12.987Z,25.30
2023-05-05T11:30:56.636Z,25.30
2023-05-05T11:33:32.685Z,25.00
2023-05-05T11:36:04.183Z,25.00
2023-05-05T11:38:57.954Z,25.10
2023-05-05T11:41:32.930Z,25.30
2023-05-05T11:44:21.663Z,25.40
2023-05-05T11:46:52.491Z,25.50
2023-05-05T11:49:31.638Z,25.50
2023-05-05T11:52:13.304Z,25.50
2023-05-05T11:54:50.664Z,25.50
2023-05-05T11:57:21.216Z,25.60
2023-05-05T11:59:54.322Z,25.70
2023-05-05T12:02:22.344Z,25.70
2023-05-05T12:04:49.383Z,25.70
2023-05-05T12:07:19.961Z,25.80
2023-05-05T12:09:48.316Z,25.90
2023-05-05T12:12:15.356Z,26.00
2023-05-05T12:14:52.666Z,26.00
2023-05-05T12:17:20.593Z,26.00
2023-05-05T12:19:47.879Z,25.80
2023-05-05T12:22:28.422Z,25.80
2023-05-05T12:24:57.762Z,25.80
2023-05-05T12:27:26.464Z,25.80
2023-05-05T12:29:56.840Z,25.80
2023-05-05T12:32:29.922Z,25.90
2023-05-05T12:34:59.624Z,25.90
2023-05-05T12:37:27.614Z,25.90
2023-05-05T12:39:55.153Z,25.90
2023-05-05T12:42:22.628Z,25.80
2023-05-05T12:44:49.611Z,25.80
2023-05-05T12:47:31.714Z,25.70
2023-05-05T12:50:00.915Z,25.70
2023-05-05T12:52:45.742Z,25.60
2023-05-05T12:55:12.761Z,25.70
2023-05-05T12:58:04.680Z,25.80
2023-05-05T13:00:31.745Z,25.90
2023-05-05T13:02:59.761Z,26.00
2023-05-05T13:05:34.433Z,26.10
2023-05-05T13:08:01.275Z,26.20
2023-05-05T13:10:28.462Z,26.20
2023-05-05T13:12:56.865Z,26.20
2023-05-05T13:15:24.596Z,26.00
2023-05-05T13:17:51.491Z,26.00
2023-05-05T13:20:18.423Z,26.00
2023-05-05T13:22:45.590Z,26.10
2023-05-05T13:25:12.743Z,26.20
2023-05-05T13:27:39.654Z,26.30
2023-05-05T13:30:07.597Z,26.30
2023-05-05T13:32:34.427Z,26.30
2023-05-05T13:35:04.253Z,26.20
2023-05-05T13:37:32.318Z,26.30
2023-05-05T13:40:00.430Z,26.40
2023-05-05T13:42:31.777Z,26.40
2023-05-05T13:44:58.983Z,26.40
2023-05-05T13:47:27.428Z,26.40
2023-05-05T13:49:54.817Z,26.40
2023-05-05T13:52:28.249Z,26.50
2023-05-05T13:55:03.719Z,26.60
2023-05-05T13:57:30.701Z,26.60
2023-05-05T13:59:58.662Z,26.50
2023-05-05T14:02:25.686Z,26.40
2023-05-05T14:04:53.257Z,26.40
2023-05-05T14:07:20.101Z,26.20
2023-05-05T14:09:47.023Z,26.40
2023-05-05T14:12:14.294Z,26.40
2023-05-05T14:14:41.080Z,26.60
2023-05-05T14:17:09.009Z,26.70
2023-05-05T14:19:37.141Z,26.80
2023-05-05T14:22:05.005Z,26.90
2023-05-05T14:24:31.832Z,27.00
2023-05-05T14:27:00.039Z,27.00
2023-05-05T14:29:26.800Z,26.80
2023-05-05T14:31:53.660Z,26.70
2023-05-05T14:34:20.886Z,26.50
2023-05-05T14:36:47.803Z,26.30
2023-05-05T14:39:18.163Z,26.20
2023-05-05T14:41:44.993Z,26.00
2023-05-05T14:44:11.878Z,25.90
2023-05-05T14:46:38.721Z,25.80
2023-05-05T14:49:06.267Z,25.70
2023-05-05T14:51:33.262Z,25.70
2023-05-05T14:54:00.209Z,25.60
2023-05-05T14:56:28.483Z,25.60
2023-05-05T14:58:55.344Z,25.40
2023-05-05T15:01:22.712Z,25.30
2023-05-05T15:03:49.958Z,25.30
2023-05-05T15:06:17.030Z,25.20
2023-05-05T15:08:45.181Z,25.10
2023-05-05T15:11:12.022Z,25.10
2023-05-05T15:13:40.378Z,25.10
2023-05-05T15:16:08.004Z,25.10
2023-05-05T15:18:35.869Z,25.00
2023-05-05T15:21:02.733Z,25.00
2023-05-05T15:23:29.574Z,25.00
2023-05-05T15:25:57.596Z,25.00
2023-05-05T15:28:24.477Z,25.00
2023-05-05T15:30:51.334Z,25.00
2023-05-05T15:33:18.216Z,25.00
2023-05-05T15:35:45.977Z,25.00
2023-05-05T15:38:16.262Z,25.00
2023-05-05T15:40:44.658Z,25.00
2023-05-05T15:43:12.607Z,25.10
2023-05-05T15:45:42.245Z,25.10
2023-05-05T15:48:09.188Z,25.00
2023-05-05T15:50:36.845Z,25.00
2023-05-05T15:53:03.683Z,25.00
2023-05-05T15:55:30.562Z,25.00
2023-05-05T15:57:58.315Z,24.90
2023-05-05T16:00:49.509Z,24.90
2023-05-05T16:03:17.885Z,24.90
2023-05-05T16:05:44.896Z,25.00
2023-05-05T16:08:12.643Z,25.10
2023-05-05T16:10:39.681Z,25.00
2023-05-05T16:13:07.051Z,25.00
2023-05-05T16:15:35.970Z,25.00
2023-05-05T16:18:02.824Z,25.00
2023-05-05T16:20:29.857Z,25.00
2023-05-05T16:22:57.731Z,24.90
2023-05-05T16:25:24.602Z,24.90
2023-05-05T16:27:52.045Z,24.90
2023-05-05T16:30:20.406Z,24.90
2023-05-05T16:32:51.297Z,24.90
2023-05-05T16:35:18.282Z,24.90
2023-05-05T16:37:45.188Z,25.00
2023-05-05T16:40:12.914Z,25.10
2023-05-05T16:42:39.765Z,25.10
2023-05-05T16:45:08.630Z,25.00
2023-05-05T16:47:35.834Z,25.00
2023-05-05T16:50:03.300Z,25.00
2023-05-05T16:52:31.161Z,24.90
2023-05-05T16:54:58.063Z,24.90
2023-05-05T16:57:25.166Z,24.90
2023-05-05T16:59:54.794Z,24.80
2023-05-05T17:02:21.697Z,24.70
2023-05-05T17:04:49.554Z,24.60
2023-05-05T17:07:16.498Z,24.60
2023-05-05T17:09:43.345Z,24.50
2023-05-05T17:12:11.433Z,24.50
2023-05-05T17:14:38.331Z,24.40
2023-05-05T17:17:05.476Z,24.40
2023-05-05T17:19:33.345Z,24.40
2023-05-05T17:22:00.784Z,24.40
2023-05-05T17:24:27.641Z,24.40
2023-05-05T17:26:55.246Z,24.40
2023-05-05T17:29:23.387Z,24.50
2023-05-05T17:31:51.755Z,24.60
2023-05-05T17:34:18.683Z,24.80
2023-05-05T17:36:47.953Z,24.80
2023-05-05T17:39:14.799Z,24.70
2023-05-05T17:41:43.002Z,24.60
2023-05-05T17:44:11.907Z,24.60
2023-05-05T17:46:39.411Z,24.40
2023-05-05T17:49:11.859Z,24.20
2023-05-05T17:51:39.547Z,24.10
2023-05-05T17:54:06.698Z,24.00
2023-05-05T17:56:37.065Z,24.00
2023-05-05T17:59:04.371Z,23.80
2023-05-05T18:01:31.909Z,23.60
2023-05-05T18:03:58.853Z,23.50
2023-05-05T18:06:26.807Z,23.40
2023-05-05T18:08:53.679Z,22.90
2023-05-05T18:11:21.368Z,22.60
2023-05-05T18:13:49.031Z,22.40
2023-05-05T18:16:15.845Z,22.30
2023-05-05T18:18:44.175Z,22.30
2023-05-05T18:21:12.353Z,22.10
2023-05-05T18:23:40.325Z,22.00
2023-05-05T18:26:09.119Z,21.90
2023-05-05T18:28:36.867Z,21.80
2023-05-05T18:31:04.174Z,21.70
2023-05-05T18:33:31.090Z,21.50
2023-05-05T18:36:05.280Z,21.40
2023-05-05T18:38:38.671Z,21.40
2023-05-05T18:41:08.501Z,21.40
2023-05-05T18:43:35.611Z,21.30
2023-05-05T18:46:08.930Z,21.10
2023-05-05T18:48:39.208Z,21.00
2023-05-05T18:51:07.571Z,20.90
2023-05-05T18:53:35.673Z,20.80
2023-05-05T18:56:03.102Z,20.70
2023-05-05T18:58:30.750Z,20.60
2023-05-05T19:01:00.374Z,20.50
2023-05-05T19:03:27.207Z,20.50
2023-05-05T19:05:55.456Z,20.40
2023-05-05T19:08:25.452Z,20.30
2023-05-05T19:10:55.714Z,20.20
2023-05-05T19:13:25.662Z,20.10
2023-05-05T19:15:52.735Z,20.00
2023-05-05T19:18:19.623Z,20.00
2023-05-05T19:20:47.726Z,19.80
2023-05-05T19:23:17.137Z,19.70
2023-05-05T19:25:44.686Z,19.60
2023-05-05T19:28:12.048Z,19.60
2023-05-05T19:30:41.066Z,19.50
2023-05-05T19:33:12.325Z,19.50
2023-05-05T19:35:42.234Z,19.40
2023-05-05T19:38:12.745Z,19.10
2023-05-05T19:40:43.887Z,18.90
2023-05-05T19:43:11.771Z,18.70
2023-05-05T19:45:38.691Z,18.70
2023-05-05T19:48:06.881Z,18.50
2023-05-05T19:50:33.774Z,18.30
2023-05-05T19:53:04.811Z,18.30
2023-05-05T19:55:34.759Z,18.30
2023-05-05T19:58:07.463Z,18.20
2023-05-05T20:00:34.345Z,18.00
2023-05-05T20:03:02.036Z,17.80
2023-05-05T20:05:28.924Z,17.70
2023-05-05T20:07:55.917Z,17.80
2023-05-05T20:10:22.857Z,17.60
2023-05-05T20:12:51.541Z,17.60
2023-05-05T20:15:37.731Z,17.50
2023-05-05T20:18:04.697Z,17.50
2023-05-05T20:20:31.586Z,17.50
2023-05-05T20:22:58.646Z,17.50
2023-05-05T20:25:25.629Z,17.40
2023-05-05T20:27:53.327Z,17.40
2023-05-05T20:30:20.250Z,17.30
2023-05-05T20:32:47.942Z,17.20
2023-05-05T20:35:15.103Z,17.20
2023-05-05T20:37:44.993Z,17.20
2023-05-05T20:40:12.737Z,17.10
2023-05-05T20:42:39.678Z,17.10
2023-05-05T20:45:07.101Z,17.00
2023-05-05T20:47:37.079Z,16.90
2023-05-05T20:50:04.440Z,16.80
2023-05-05T20:52:40.097Z,16.70
2023-05-05T20:55:07.685Z,16.60
2023-05-05T20:57:35.576Z,16.50
2023-05-05T21:00:02.592Z,16.40
2023-05-05T21:02:31.738Z,16.30
2023-05-05T21:05:02.881Z,16.30
2023-05-05T21:07:33.160Z,16.30
2023-05-05T21:10:03.823Z,16.20
2023-05-05T21:12:32.120Z,16.20
2023-05-05T21:14:59.620Z,16.10
2023-05-05T21:17:29.654Z,16.10
2023-05-05T21:19:57.631Z,16.10
2023-05-05T21:22:24.541Z,16.10
2023-05-05T21:24:52.423Z,16.00
2023-05-05T21:27:20.009Z,15.90
2023-05-05T21:29:47.148Z,15.80
2023-05-05T21:32:13.962Z,15.70
2023-05-05T21:34:41.819Z,15.70
2023-05-05T21:37:08.644Z,15.70
2023-05-05T21:39:35.656Z,15.70
2023-05-05T21:42:02.668Z,15.70
2023-05-05T21:44:29.638Z,15.60
2023-05-05T21:46:56.533Z,15.60
2023-05-05T21:49:23.375Z,15.50
2023-05-05T21:51:50.304Z,15.50
2023-05-05T21:54:17.864Z,15.40
2023-05-05T21:56:44.695Z,15.40
2023-05-05T21:59:12.327Z,15.30
2023-05-05T22:01:39.286Z,15.20
2023-05-05T22:04:08.494Z,15.10
2023-05-05T22:06:35.829Z,15.10
2023-05-05T22:09:03.888Z,15.10
2023-05-05T22:11:32.092Z,15.10
2023-05-05T22:13:58.873Z,15.10
2023-05-05T22:16:25.995Z,15.10
2023-05-05T22:18:53.107Z,15.10
2023-05-05T22:21:22.026Z,15.20
2023-05-05T22:23:48.839Z,15.20
2023-05-05T22:26:16.474Z,15.20
2023-05-05T22:28:43.341Z,15.20
2023-05-05T22:31:11.619Z,15.40
2023-05-05T22:33:38.583Z,15.50
2023-05-05T22:36:06.493Z,15.50
2023-05-05T22:38:33.487Z,15.60
2023-05-05T22:41:01.070Z,15.50
2023-05-05T22:43:27.928Z,15.30
2023-05-05T22:45:54.835Z,15.40
2023-05-05T22:48:21.720Z,15.50
2023-05-05T22:50:49.025Z,15.60
2023-05-05T22:53:16.620Z,15.70
2023-05-05T22:55:43.485Z,15.70
2023-05-05T22:58:11.616Z,15.70
2023-05-05T23:00:38.412Z,15.80
2023-05-05T23:03:06.074Z,15.80
2023-05-05T23:05:36.911Z,15.80
2023-05-05T23:08:04.717Z,15.80
2023-05-05T23:10:31.839Z,15.80
2023-05-05T23:12:58.686Z,15.70
2023-05-05T23:15:25.622Z,15.70
2023-05-05T23:17:52.586Z,15.60
2023-05-05T23:20:19.724Z,15.60
2023-05-05T23:22:46.541Z,15.60
2023-05-05T23:25:13.916Z,15.50
2023-05-05T23:27:41.216Z,15.50
2023-05-05T23:30:09.422Z,15.50
2023-05-05T23:32:37.076Z,15.50
2023-05-05T23:35:04.173Z,15.50
2023-05-05T23:37:31.951Z,15.50
2023-05-05T23:39:58.958Z,15.40
2023-05-05T23:42:26.586Z,15.40
2023-05-05T23:44:53.403Z,15.40
2023-05-05T23:47:20.329Z,15.40
2023-05-05T23:49:47.201Z,15.50
2023-05-05T23:52:14.387Z,15.50
2023-05-05T23:54:41.517Z,15.40
2023-05-05T23:57:09.084Z,15.50
2023-05-05T23:59:35.930Z,15.50
